Time;durP1;ratioP1;P1;durP2;ratioP2;P2;SDS_P1;SDS_P2;PMS_P1;PMS_P2;Temp;Humidity;BMP_temperature;BMP_pressure;BME280_temperature;BME280_humidity;BME280_pressure;Samples;Min_cycle;Max_cycle;Signal;HPM_P1;HPM_P2
2022/09/22 00:01:21;;;;;;;;;;;;;;;21.92;48.82;101030.13;7401168;19;1867;-43
2022/09/22 00:03:50;;;;;;;;;;;;;;;21.89;48.58;101012.44;7402733;19;1989;-43
2022/09/22 00:06:21;;;;;;;;;;;;;;;21.91;48.55;101028.44;7403431;19;1606;-43
2022/09/22 00:08:52;;;;;;;;;;;;;;;21.83;48.67;101021.94;7404020;19;1582;-42
2022/09/22 00:11:24;;;;;;;;;;;;;;;21.89;48.93;101016.97;7402576;19;1563;-42
2022/09/22 00:13:53;;;;;;;;;;;;;;;21.87;48.71;101018.97;7402776;19;1677;-43
2022/09/22 00:16:22;;;;;;;;;;;;;;;21.84;48.62;101010.19;7402772;19;1784;-42
2022/09/22 00:18:51;;;;;;;;;;;;;;;21.85;48.38;101022.66;7401503;19;1677;-43
2022/09/22 00:21:20;;;;;;;;;;;;;;;21.88;48.33;101018.81;7400407;19;2034;-42
2022/09/22 00:23:48;;;;;;;;;;;;;;;21.81;48.09;101013.19;7403354;19;1761;-43
2022/09/22 00:26:18;;;;;;;;;;;;;;;21.84;48.59;101015.59;7402141;19;1828;-42
2022/09/22 00:28:50;;;;;;;;;;;;;;;21.88;48.30;101023.34;7401966;19;1670;-42
2022/09/22 00:31:20;;;;;;;;;;;;;;;21.83;48.30;101016.56;7402657;19;1689;-43
2022/09/22 00:33:48;;;;;;;;;;;;;;;21.86;48.22;101026.19;7402603;19;1856;-42
2022/09/22 00:36:17;;;;;;;;;;;;;;;21.83;48.35;101019.25;7401116;19;1793;-42
2022/09/22 00:38:46;;;;;;;;;;;;;;;21.81;48.24;101026.63;7402645;19;1619;-42
2022/09/22 00:41:17;;;;;;;;;;;;;;;21.80;48.49;101026.78;7400071;19;1885;-43
2022/09/22 00:43:49;;;;;;;;;;;;;;;21.78;48.32;101024.22;7403102;19;1684;-43
2022/09/22 00:46:22;;;;;;;;;;;;;;;21.78;48.22;101021.53;7400297;19;1816;-42
2022/09/22 00:48:53;;;;;;;;;;;;;;;21.80;48.21;101027.63;7401595;19;1458;-42
2022/09/22 00:51:23;;;;;;;;;;;;;;;21.80;48.38;101026.78;7401787;19;1846;-43
2022/09/22 00:53:52;;;;;;;;;;;;;;;21.79;48.00;101030.47;7401708;19;1699;-41
2022/09/22 00:56:22;;;;;;;;;;;;;;;21.77;48.17;101013.63;7400579;19;1953;-43
2022/09/22 00:58:53;;;;;;;;;;;;;;;21.76;47.96;101017.31;7402527;19;1844;-42
2022/09/22 01:01:24;;;;;;;;;;;;;;;21.74;48.75;101011.22;7399283;19;1850;-42
2022/09/22 01:03:53;;;;;;;;;;;;;;;21.76;48.00;101014.59;7401053;19;1726;-42
2022/09/22 01:06:23;;;;;;;;;;;;;;;21.74;48.28;101020.13;7399149;19;1906;-43
2022/09/22 01:08:51;;;;;;;;;;;;;;;21.76;48.27;101026.22;7401185;19;1876;-42
2022/09/22 01:11:20;;;;;;;;;;;;;;;21.78;48.08;101034.16;7401360;19;1687;-43
2022/09/22 01:13:53;;;;;;;;;;;;;;;21.76;48.07;101022.69;7401555;19;1920;-42
2022/09/22 01:16:40;;;;;;;;;;;;;;;21.77;48.34;101027.09;7399743;19;1681;-42
2022/09/22 01:19:25;;;;;;;;;;;;;;;21.75;48.11;101029.09;7400300;19;1620;-43
2022/09/22 01:21:59;;;;;;;;;;;;;;;21.74;48.47;101020.13;7397905;19;1847;-43
2022/09/22 01:24:42;;;;;;;;;;;;;;;21.71;48.17;101019.59;7400750;19;1780;-43
2022/09/22 01:27:28;;;;;;;;;;;;;;;21.75;48.19;101067.59;7399315;19;1776;-43
2022/09/22 01:30:12;;;;;;;;;;;;;;;21.73;48.02;101015.75;7399401;19;1713;-43
2022/09/22 01:32:45;;;;;;;;;;;;;;;21.69;48.31;101045.81;7400441;19;1920;-43
2022/09/22 01:35:18;;;;;;;;;;;;;;;21.71;48.13;101049.22;7399149;19;1798;-42
2022/09/22 01:37:50;;;;;;;;;;;;;;;21.68;48.11;101034.19;7399884;19;1744;-43
2022/09/22 01:40:24;;;;;;;;;;;;;;;21.69;47.80;101038.59;7399514;19;1853;-42
2022/09/22 01:42:56;;;;;;;;;;;;;;;21.71;47.95;101039.28;7400756;19;1937;-42
2022/09/22 01:45:28;;;;;;;;;;;;;;;21.71;47.94;101023.13;7400803;19;1683;-42
2022/09/22 01:48:01;;;;;;;;;;;;;;;21.65;48.17;101023.72;7400368;19;1749;-43
2022/09/22 01:50:30;;;;;;;;;;;;;;;21.70;48.07;101032.19;7398590;19;1653;-42
2022/09/22 01:53:02;;;;;;;;;;;;;;;21.69;47.73;101035.91;7400047;19;1560;-43
2022/09/22 01:55:32;;;;;;;;;;;;;;;21.67;47.82;101035.19;7399637;19;1521;-43
2022/09/22 01:58:02;;;;;;;;;;;;;;;21.67;48.18;101035.19;7398871;19;1684;-42
2022/09/22 02:00:31;;;;;;;;;;;;;;;21.68;47.71;101028.81;7401605;19;3435;-56
2022/09/22 02:03:04;;;;;;;;;;;;;;;21.68;47.82;101022.56;7408321;19;1521;-77
2022/09/22 02:05:35;;;;;;;;;;;;;;;21.66;48.04;101041.56;7412469;19;1772;-57
2022/09/22 02:08:06;;;;;;;;;;;;;;;21.68;47.87;101036.03;7412599;19;1004;-56
2022/09/22 02:10:37;;;;;;;;;;;;;;;21.65;47.93;101032.63;7410994;19;1667;-56
2022/09/22 02:13:05;;;;;;;;;;;;;;;21.64;47.49;101038.16;7411082;19;1745;-56
2022/09/22 02:18:21;;;;;;;;;;;;;;;21.62;47.81;101050.91;7412132;19;1355;-78
2022/09/22 02:20:49;;;;;;;;;;;;;;;21.66;47.64;101049.63;7412740;19;1838;-78
2022/09/22 02:23:17;;;;;;;;;;;;;;;21.67;47.48;101048.66;7412802;19;1458;-78
2022/09/22 02:25:50;;;;;;;;;;;;;;;21.59;47.57;101040.47;7412573;19;1759;-78
2022/09/22 02:28:21;;;;;;;;;;;;;;;21.60;47.95;101044.84;7412141;19;1582;-57
2022/09/22 02:30:51;;;;;;;;;;;;;;;21.58;47.74;101044.13;7410770;19;1670;-56
2022/09/22 02:33:23;;;;;;;;;;;;;;;21.57;47.54;101042.44;7409445;19;1554;-56
2022/09/22 02:35:55;;;;;;;;;;;;;;;21.61;47.53;101052.78;7410613;19;1544;-56
2022/09/22 02:38:28;;;;;;;;;;;;;;;21.65;47.87;101066.78;7411057;19;1016;-56
2022/09/22 02:41:03;;;;;;;;;;;;;;;21.62;47.71;101050.91;7410657;19;1855;-56
2022/09/22 02:43:35;;;;;;;;;;;;;;;21.63;47.29;101049.94;7410269;19;1615;-56
2022/09/22 02:46:07;;;;;;;;;;;;;;;21.64;47.73;101054.31;7406885;19;1427;-56
2022/09/22 02:48:40;;;;;;;;;;;;;;;21.58;47.55;101044.97;7410139;19;1604;-56
2022/09/22 02:51:09;;;;;;;;;;;;;;;21.56;47.90;101052.34;7409434;19;1455;-56
2022/09/22 02:53:37;;;;;;;;;;;;;;;21.59;47.61;101040.47;7409392;19;1546;-56
2022/09/22 02:56:06;;;;;;;;;;;;;;;21.58;47.98;101055.75;7409866;19;1411;-56
2022/09/22 02:58:34;;;;;;;;;;;;;;;21.59;47.67;101052.06;7410346;19;934;-56
2022/09/22 03:01:02;;;;;;;;;;;;;;;21.59;47.71;101067.38;7405929;19;1870;-56
2022/09/22 03:03:31;;;;;;;;;;;;;;;21.57;47.94;101040.59;7405760;19;1624;-56
2022/09/22 03:06:02;;;;;;;;;;;;;;;21.57;47.37;101053.22;7408635;19;1316;-56
2022/09/22 03:08:30;;;;;;;;;;;;;;;21.53;47.49;101051.81;7408792;19;1336;-56
2022/09/22 03:10:58;;;;;;;;;;;;;;;21.52;47.56;101053.63;7407616;19;1445;-56
2022/09/22 03:13:27;;;;;;;;;;;;;;;21.54;47.90;101064.25;7409563;19;1565;-56
2022/09/22 03:15:55;;;;;;;;;;;;;;;21.50;47.61;101068.22;7405394;19;1679;-57
2022/09/22 03:18:24;;;;;;;;;;;;;;;21.53;48.18;101062.56;7408053;19;1536;-56
2022/09/22 03:20:52;;;;;;;;;;;;;;;21.52;47.77;101048.25;7407969;19;1862;-57
2022/09/22 03:23:23;;;;;;;;;;;;;;;21.68;48.35;101071.03;7409085;19;1336;-76
2022/09/22 03:25:51;;;;;;;;;;;;;;;21.73;48.70;101048.06;7410926;19;955;-56
2022/09/22 03:28:20;;;;;;;;;;;;;;;21.77;48.99;101057.53;7407402;19;1785;-56
2022/09/22 03:30:48;;;;;;;;;;;;;;;21.77;48.83;101046.78;7407615;19;1618;-56
2022/09/22 03:33:16;;;;;;;;;;;;;;;21.79;48.86;101050.16;7402639;19;1505;-56
2022/09/22 03:35:45;;;;;;;;;;;;;;;21.94;49.08;101046.97;7406813;19;1637;-56
2022/09/22 03:38:13;;;;;;;;;;;;;;;21.96;49.15;101048.53;7406359;19;1651;-58
2022/09/22 03:40:51;;;;;;;;;;;;;;;21.94;49.14;101068.53;7407487;19;1577;-64
2022/09/22 03:43:19;;;;;;;;;;;;;;;21.96;49.40;101058.47;7407638;19;1723;-59
2022/09/22 03:45:48;;;;;;;;;;;;;;;21.96;49.66;101074.63;7406636;19;1467;-57
2022/09/22 03:48:17;;;;;;;;;;;;;;;21.93;49.46;101059.59;7407263;19;1336;-57
2022/09/22 03:50:45;;;;;;;;;;;;;;;21.96;49.42;101059.28;7407833;19;1759;-57
2022/09/22 03:53:13;;;;;;;;;;;;;;;22.00;49.66;101073.31;7406671;19;1640;-62
2022/09/22 03:55:44;;;;;;;;;;;;;;;21.94;49.92;101060.44;7405497;19;1478;-61
2022/09/22 03:58:12;;;;;;;;;;;;;;;21.95;49.78;101057.63;7405658;19;1347;-60
2022/09/22 04:00:41;;;;;;;;;;;;;;;21.96;49.81;101064.69;7406412;19;1623;-62
2022/09/22 04:03:10;;;;;;;;;;;;;;;21.98;49.63;101072.63;7401395;19;1853;-69
2022/09/22 04:05:39;;;;;;;;;;;;;;;21.91;50.07;101060.75;7405481;19;1700;-69
2022/09/22 04:08:07;;;;;;;;;;;;;;;21.92;49.91;101057.06;7406393;19;1516;-68
2022/09/22 04:10:35;;;;;;;;;;;;;;;21.94;50.28;101060.44;7405280;19;1430;-67
2022/09/22 04:13:06;;;;;;;;;;;;;;;21.94;50.22;101060.44;7406658;19;1620;-68
2022/09/22 04:15:35;;;;;;;;;;;;;;;21.91;50.20;101069.69;7405718;19;1636;-72
2022/09/22 04:18:03;;;;;;;;;;;;;;;21.96;50.27;101064.69;7403821;19;1523;-63
2022/09/22 04:20:31;;;;;;;;;;;;;;;21.99;50.11;101068.94;7404622;19;1396;-72
2022/09/22 04:22:59;;;;;;;;;;;;;;;21.99;50.26;101064.41;7404359;19;1905;-62
2022/09/22 04:25:30;;;;;;;;;;;;;;;22.00;50.35;101071.50;7405007;19;1505;-78
2022/09/22 04:27:59;;;;;;;;;;;;;;;22.05;50.49;101068.34;7404661;19;1450;-75
2022/09/22 04:30:30;;;;;;;;;;;;;;;22.09;50.49;101075.13;7405840;19;1627;-72
2022/09/22 04:32:59;;;;;;;;;;;;;;;22.16;50.54;101065.47;7404273;19;1506;-58
2022/09/22 04:35:27;;;;;;;;;;;;;;;22.22;50.59;101059.50;7406010;19;1663;-57
2022/09/22 04:37:55;;;;;;;;;;;;;;;22.26;50.20;101057.34;7406113;19;1572;-69
2022/09/22 04:40:24;;;;;;;;;;;;;;;22.23;50.60;101061.16;7405869;19;1297;-58
2022/09/22 04:42:53;;;;;;;;;;;;;;;22.15;49.96;101063.75;7404769;19;1869;-73
2022/09/22 04:45:21;;;;;;;;;;;;;;;22.12;49.84;101058.66;7404678;19;1754;-70
2022/09/22 04:47:53;;;;;;;;;;;;;;;22.04;50.45;101067.50;7403755;19;1678;-56
2022/09/22 04:50:23;;;;;;;;;;;;;;;22.10;50.79;101062.50;7405919;19;1459;-70
2022/09/22 04:52:55;;;;;;;;;;;;;;;22.03;50.91;101059.56;7406469;19;1421;-74
2022/09/22 04:55:24;;;;;;;;;;;;;;;22.08;51.45;101059.97;7405478;19;1344;-56
2022/09/22 04:57:53;;;;;;;;;;;;;;;22.12;50.92;101066.75;7404671;19;1330;-59
2022/09/22 05:00:22;;;;;;;;;;;;;;;22.03;51.24;101062.25;7403954;19;1339;-64
2022/09/22 05:02:53;;;;;;;;;;;;;;;22.02;51.09;101065.94;7403470;19;1879;-56
2022/09/22 05:05:22;;;;;;;;;;;;;;;22.14;50.98;101058.53;7405558;19;1456;-55
2022/09/22 05:07:52;;;;;;;;;;;;;;;22.23;49.97;101063.03;7405750;19;1851;-57
2022/09/22 05:10:21;;;;;;;;;;;;;;;22.27;52.46;101061.75;7407590;19;1600;-71
2022/09/22 05:12:50;;;;;;;;;;;;;;;22.30;51.50;101060.59;7404968;19;1706;-56
2022/09/22 05:15:18;;;;;;;;;;;;;;;22.36;51.37;101068.06;7405046;19;1691;-57
2022/09/22 05:17:46;;;;;;;;;;;;;;;22.35;51.44;101069.09;7402853;19;1503;-69
2022/09/22 05:20:18;;;;;;;;;;;;;;;22.34;51.68;101083.53;7405752;19;1363;-68
2022/09/22 05:22:46;;;;;;;;;;;;;;;22.34;51.80;101068.25;7402758;19;1842;-57
2022/09/22 05:25:15;;;;;;;;;;;;;;;22.38;51.64;101058.00;7402747;19;1489;-58
2022/09/22 05:27:47;;;;;;;;;;;;;;;22.41;52.30;101063.09;7402220;19;1332;-55
2022/09/22 05:30:16;;;;;;;;;;;;;;;22.48;51.95;101058.78;7405313;19;979;-68
2022/09/22 05:32:46;;;;;;;;;;;;;;;22.48;49.22;101074.94;7406131;19;1318;-70
2022/09/22 05:35:14;;;;;;;;;;;;;;;22.53;49.81;101088.84;7411882;19;1378;-57
2022/09/22 05:37:46;;;;;;;;;;;;;;;22.53;48.00;101066.44;7410562;19;1596;-73
2022/09/22 05:40:15;;;;;;;;;;;;;;;22.47;49.31;101065.19;7412074;19;1225;-69
2022/09/22 05:42:45;;;;;;;;;;;;;;;22.47;49.07;101075.97;7407101;19;1846;-57
2022/09/22 05:45:13;;;;;;;;;;;;;;;22.50;50.09;101072.97;7411496;19;1055;-76
2022/09/22 05:47:42;;;;;;;;;;;;;;;22.51;49.68;101066.56;7406996;19;1510;-77
2022/09/22 05:50:11;;;;;;;;;;;;;;;22.50;49.75;101082.88;7408565;19;1524;-75
2022/09/22 05:52:40;;;;;;;;;;;;;;;22.56;49.79;101082.28;7407503;19;1366;-59
2022/09/22 05:55:11;;;;;;;;;;;;;;;22.62;49.82;101087.94;7412728;19;1292;-56
2022/09/22 05:57:39;;;;;;;;;;;;;;;22.61;50.02;101078.13;7409969;19;1310;-69
2022/09/22 06:00:10;;;;;;;;;;;;;;;22.70;49.76;101083.63;7409875;19;1287;-67
2022/09/22 06:02:38;;;;;;;;;;;;;;;22.75;50.05;101081.31;7407890;19;1893;-63
2022/09/22 06:05:07;;;;;;;;;;;;;;;22.79;50.45;101090.81;7410178;19;1422;-55
2022/09/22 06:07:35;;;;;;;;;;;;;;;22.82;50.92;101071.63;7410739;19;1738;-56
2022/09/22 06:10:04;;;;;;;;;;;;;;;22.78;50.57;101059.44;7410433;19;1713;-59
2022/09/22 06:12:34;;;;;;;;;;;;;;;22.75;51.00;101082.16;7407640;19;1407;-59
2022/09/22 06:15:03;;;;;;;;;;;;;;;22.76;51.06;101078.47;7410422;19;1362;-59
2022/09/22 06:17:31;;;;;;;;;;;;;;;22.84;51.34;101080.41;7407399;19;1487;-66
2022/09/22 06:20:00;;;;;;;;;;;;;;;22.81;50.74;101072.63;7409404;19;1536;-58
2022/09/22 06:22:28;;;;;;;;;;;;;;;22.79;51.01;101075.47;7408447;19;1865;-59
2022/09/22 06:24:56;;;;;;;;;;;;;;;22.84;51.20;101075.88;7410146;19;1402;-68
2022/09/22 06:27:25;;;;;;;;;;;;;;;22.91;51.20;101081.47;7407996;19;1646;-66
2022/09/22 06:29:57;;;;;;;;;;;;;;;22.87;51.64;101074.69;7410040;19;1438;-69
2022/09/22 06:32:26;;;;;;;;;;;;;;;22.87;51.58;101071.16;7411566;19;1141;-68
2022/09/22 06:34:54;;;;;;;;;;;;;;;22.84;51.86;101088.50;7407400;19;1317;-61
2022/09/22 06:37:23;;;;;;;;;;;;;;;22.91;52.31;101077.94;7406940;19;1301;-66
2022/09/22 06:39:51;;;;;;;;;;;;;;;22.94;53.24;101089.28;7407552;19;1281;-58
2022/09/22 06:42:19;;;;;;;;;;;;;;;22.90;52.76;101068.13;7408823;19;1869;-66
2022/09/22 06:44:48;;;;;;;;;;;;;;;22.90;52.71;101085.19;7406783;19;1774;-67
2022/09/22 06:47:19;;;;;;;;;;;;;;;22.91;53.56;101092.25;7407336;19;1636;-59
2022/09/22 06:49:47;;;;;;;;;;;;;;;22.91;54.54;101108.44;7409977;19;1439;-68
2022/09/22 06:52:16;;;;;;;;;;;;;;;22.91;55.06;101088.72;7405281;19;1682;-58
2022/09/22 06:54:44;;;;;;;;;;;;;;;22.92;54.44;101091.28;7407118;19;1417;-58
2022/09/22 06:57:12;;;;;;;;;;;;;;;22.92;53.98;101096.69;7406100;19;1232;-61
2022/09/22 06:59:41;;;;;;;;;;;;;;;22.88;54.71;101097.97;7407382;19;1540;-61
2022/09/22 07:02:11;;;;;;;;;;;;;;;22.90;54.21;101098.69;7403061;19;1850;-58
2022/09/22 07:04:42;;;;;;;;;;;;;;;22.87;54.61;101109.75;7409600;19;1305;-58
2022/09/22 07:07:10;;;;;;;;;;;;;;;22.87;54.50;101100.81;7409321;19;1408;-62
2022/09/22 07:09:38;;;;;;;;;;;;;;;23.05;54.57;101092.78;7407534;19;1616;-58
2022/09/22 07:12:07;;;;;;;;;;;;;;;23.42;55.46;101096.13;7407306;19;1929;-56
2022/09/22 07:14:35;;;;;;;;;;;;;;;23.37;55.40;101092.19;7401911;19;1491;-65
2022/09/22 07:17:03;;;;;;;;;;;;;;;23.52;52.84;101076.31;7405550;19;1537;-65
2022/09/22 07:19:35;;;;;;;;;;;;;;;23.35;55.09;101086.94;7408147;19;1323;-65
2022/09/22 07:22:07;;;;;;;;;;;;;;;23.14;53.23;101092.69;7408184;19;1533;-59
2022/09/22 07:24:35;;;;;;;;;;;;;;;22.95;53.52;101092.81;7405133;19;1547;-66
2022/09/22 07:27:05;;;;;;;;;;;;;;;22.80;52.55;101101.44;7404158;19;1231;-63
2022/09/22 07:29:34;;;;;;;;;;;;;;;22.77;52.28;101096.34;7401909;19;1379;-67
2022/09/22 07:32:02;;;;;;;;;;;;;;;22.81;51.55;101102.28;7403752;19;1347;-65
2022/09/22 07:34:31;;;;;;;;;;;;;;;22.89;52.44;101099.66;7408196;19;1139;-63
2022/09/22 07:36:59;;;;;;;;;;;;;;;22.94;52.49;101099.19;7407527;19;1287;-75
2022/09/22 07:39:30;;;;;;;;;;;;;;;22.94;50.91;101097.38;7295891;19;15437;-73
2022/09/22 07:41:58;;;;;;;;;;;;;;;22.92;51.68;101095.81;7407964;19;1792;-64
2022/09/22 07:47:08;;;;;;;;;;;;;;;22.97;51.12;101091.66;7408049;19;1260;-65
2022/09/22 07:49:36;;;;;;;;;;;;;;;22.90;50.04;101085.19;7407087;19;1393;-72
2022/09/22 07:52:04;;;;;;;;;;;;;;;22.81;49.83;101089.63;7407261;19;1328;-67
2022/09/22 07:54:36;;;;;;;;;;;;;;;22.76;49.24;101093.78;7406879;19;1544;-67
2022/09/22 07:57:05;;;;;;;;;;;;;;;22.74;49.60;101095.78;7404332;19;1356;-67
2022/09/22 07:59:34;;;;;;;;;;;;;;;22.71;49.08;101085.31;7405883;19;1655;-67
2022/09/22 08:02:03;;;;;;;;;;;;;;;22.70;48.93;101080.91;7405106;19;1407;-67
2022/09/22 08:04:32;;;;;;;;;;;;;;;22.70;48.88;101083.63;7404003;19;1844;-57
2022/09/22 08:07:00;;;;;;;;;;;;;;;22.76;49.15;101102.75;7405666;19;1596;-57
2022/09/22 08:09:32;;;;;;;;;;;;;;;22.65;48.32;101081.38;7405105;19;1465;-57
2022/09/22 08:12:03;;;;;;;;;;;;;;;22.73;48.71;101088.72;7401930;19;1481;-61
2022/09/22 08:14:31;;;;;;;;;;;;;;;22.70;48.88;101089.00;7401833;19;1611;-58
2022/09/22 08:16:59;;;;;;;;;;;;;;;22.70;47.95;101083.63;7403708;19;1414;-62
2022/09/22 08:19:29;;;;;;;;;;;;;;;22.69;48.58;101082.78;7402721;19;1599;-61
2022/09/22 08:21:57;;;;;;;;;;;;;;;22.68;48.42;101070.31;7404452;19;1703;-63
2022/09/22 08:24:25;;;;;;;;;;;;;;;22.71;48.40;101072.69;7404029;19;1865;-64
2022/09/22 08:26:55;;;;;;;;;;;;;;;22.67;48.83;101075.84;7404586;19;1211;-64
2022/09/22 08:29:26;;;;;;;;;;;;;;;22.68;48.92;101064.03;7406327;19;1398;-63
2022/09/22 08:31:55;;;;;;;;;;;;;;;22.68;48.34;101074.84;7405493;19;1099;-65
2022/09/22 08:34:23;;;;;;;;;;;;;;;22.74;48.55;101074.22;7398804;19;1371;-60
2022/09/22 08:36:52;;;;;;;;;;;;;;;22.80;47.93;101060.13;7404345;19;1807;-60
2022/09/22 08:39:20;;;;;;;;;;;;;;;22.85;48.08;101065.91;7404892;19;1541;-59
2022/09/22 08:41:58;;;;;;;;;;;;;;;22.92;47.85;101056.22;7402919;19;1278;-62
2022/09/22 08:44:32;;;;;;;;;;;;;;;22.84;47.84;101058.84;7404764;19;1919;-58
2022/09/22 08:47:02;;;;;;;;;;;;;;;22.82;47.66;101050.06;7404015;19;1320;-59
2022/09/22 08:52:18;;;;;;;;;;;;;;;23.08;49.40;101043.88;7407218;19;1520;-57
2022/09/22 08:54:47;;;;;;;;;;;;;;;22.98;49.11;101050.22;7403626;19;1639;-56
2022/09/22 08:57:30;;;;;;;;;;;;;;;23.06;50.05;101051.28;7406157;19;1534;-57
2022/09/22 09:00:04;;;;;;;;;;;;;;;23.10;50.34;101048.16;7403756;19;1805;-57
2022/09/22 09:02:40;;;;;;;;;;;;;;;23.09;50.19;101045.59;7403109;19;1630;-57
2022/09/22 09:05:26;;;;;;;;;;;;;;;23.05;50.14;101039.66;7403934;19;1408;-61
2022/09/22 09:07:59;;;;;;;;;;;;;;;22.91;49.55;101038.31;7399548;19;1589;-57
2022/09/22 09:10:39;;;;;;;;;;;;;;;22.80;49.73;101035.84;7404199;19;1428;-58
2022/09/22 09:13:17;;;;;;;;;;;;;;;22.87;49.31;101041.50;7404055;19;1593;-57
2022/09/22 09:15:56;;;;;;;;;;;;;;;22.92;49.85;101040.03;7393197;19;1579;-56
2022/09/22 09:18:28;;;;;;;;;;;;;;;22.83;48.99;101028.31;7391140;19;1482;-55
2022/09/22 09:20:58;;;;;;;;;;;;;;;22.86;49.06;101019.09;7390915;19;1593;-57
2022/09/22 09:23:30;;;;;;;;;;;;;;;22.89;49.31;101043.03;7393393;19;1872;-56
2022/09/22 09:25:59;;;;;;;;;;;;;;;22.99;48.97;101035.69;7398451;19;1569;-60
2022/09/22 09:28:34;;;;;;;;;;;;;;;22.93;48.35;101057.06;7390959;19;1513;-57
2022/09/22 09:31:10;;;;;;;;;;;;;;;22.80;46.37;101041.25;7395047;19;1602;-57
2022/09/22 09:33:44;;;;;;;;;;;;;;;22.60;46.02;101041.41;7393316;19;1641;-57
2022/09/22 09:36:15;;;;;;;;;;;;;;;22.22;46.20;100992.13;7393734;19;2030;-60
2022/09/22 09:38:46;;;;;;;;;;;;;;;22.48;46.85;101039.91;7394156;19;1583;-58
2022/09/22 09:41:17;;;;;;;;;;;;;;;22.57;46.46;101032.78;7395885;19;1613;-59
2022/09/22 09:43:46;;;;;;;;;;;;;;;22.60;47.40;101041.41;7398700;19;1871;-58
2022/09/22 09:46:28;;;;;;;;;;;;;;;22.69;46.55;101028.84;7401008;19;1604;-57
2022/09/22 09:49:06;;;;;;;;;;;;;;;22.86;47.38;101035.28;7401539;19;1521;-63
2022/09/22 09:51:39;;;;;;;;;;;;;;;22.73;47.10;101024.84;7402466;19;1582;-67
2022/09/22 09:54:09;;;;;;;;;;;;;;;22.66;47.48;101028.31;7402823;19;1601;-68
2022/09/22 09:56:37;;;;;;;;;;;;;;;22.76;48.02;101037.16;7405097;19;1541;-68
2022/09/22 10:01:50;;;;;;;;;;;;;;;22.69;47.53;101031.56;7402735;19;1715;-56
2022/09/22 10:04:20;;;;;;;;;;;;;;;22.68;47.55;101010.13;7400158;19;1866;-56
2022/09/22 10:06:48;;;;;;;;;;;;;;;22.75;47.73;101024.69;7401912;19;1266;-57
2022/09/22 10:09:27;;;;;;;;;;;;;;;22.78;48.24;101021.69;7401590;19;1595;-68
2022/09/22 10:12:01;;;;;;;;;;;;;;;22.71;47.40;101021.47;7398735;19;1471;-68
2022/09/22 10:14:31;;;;;;;;;;;;;;;22.67;46.65;101008.47;7398473;19;1388;-67
2022/09/22 10:17:03;;;;;;;;;;;;;;;22.68;46.71;101019.09;7400176;19;1491;-68
2022/09/22 10:19:33;;;;;;;;;;;;;;;22.64;46.69;101010.47;7404715;19;1352;-56
2022/09/22 10:22:16;;;;;;;;;;;;;;;22.64;46.91;101013.16;7410427;19;1625;-57
2022/09/22 10:24:54;;;;;;;;;;;;;;;22.64;46.77;101018.53;7406025;19;1852;-56
2022/09/22 10:27:23;;;;;;;;;;;;;;;22.49;47.62;101005.75;7408928;19;1264;-56
2022/09/22 10:30:14;;;;;;;;;;;;;;;22.43;47.23;101008.03;7409915;19;1285;-56
2022/09/22 10:33:04;;;;;;;;;;;;;;;22.40;47.20;101010.19;7407809;19;1245;-55
2022/09/22 10:35:34;;;;;;;;;;;;;;;22.52;47.69;101011.69;7408582;19;1293;-55
2022/09/22 10:38:08;;;;;;;;;;;;;;;22.50;47.48;101013.69;7407866;19;1386;-55
2022/09/22 10:40:39;;;;;;;;;;;;;;;22.49;46.93;101017.38;7406324;19;1304;-55
2022/09/22 10:43:12;;;;;;;;;;;;;;;22.44;46.57;101003.50;7407679;19;1319;-56
2022/09/22 10:45:44;;;;;;;;;;;;;;;22.46;46.29;101006.88;7407301;19;1664;-56
2022/09/22 10:48:23;;;;;;;;;;;;;;;22.48;46.40;100999.50;7408785;19;1749;-55
2022/09/22 10:50:57;;;;;;;;;;;;;;;22.42;46.33;100994.72;7409928;19;1695;-55
2022/09/22 10:53:40;;;;;;;;;;;;;;;22.47;46.00;100991.59;7408120;19;1370;-56
2022/09/22 10:56:12;;;;;;;;;;;;;;;22.51;46.37;100993.81;7408598;19;2360;-56
2022/09/22 10:58:46;;;;;;;;;;;;;;;22.49;45.96;100987.72;7407797;19;1459;-56
2022/09/22 11:01:25;;;;;;;;;;;;;;;22.54;46.03;100995.34;7404424;19;1950;-56
2022/09/22 11:04:10;;;;;;;;;;;;;;;22.56;45.69;100991.50;7404687;19;1846;-56
2022/09/22 11:12:19;;;;;;;;;;;;;;;22.54;46.50;100982.75;7407631;19;1530;-57
2022/09/22 11:14:55;;;;;;;;;;;;;;;22.58;45.53;100973.34;7407308;19;1554;-56
2022/09/22 11:17:37;;;;;;;;;;;;;;;22.49;45.81;100985.03;7404628;19;1449;-57
2022/09/22 11:20:20;;;;;;;;;;;;;;;22.54;45.44;100969.25;7403053;19;1441;-79
2022/09/22 11:23:02;;;;;;;;;;;;;;;22.60;45.18;100971.34;7405637;19;1352;-56
2022/09/22 11:25:38;;;;;;;;;;;;;;;22.63;45.20;100957.53;7407074;19;1853;-56
2022/09/22 11:28:19;;;;;;;;;;;;;;;22.70;46.12;100973.94;7407200;19;1471;-56
2022/09/22 11:30:50;;;;;;;;;;;;;;;22.68;46.14;100961.59;7406787;19;1336;-56
2022/09/22 11:33:42;;;;;;;;;;;;;;;22.71;46.47;100959.47;7410193;19;950;-67
2022/09/22 11:36:22;;;;;;;;;;;;;;;22.74;46.81;100964.56;7404624;19;1479;-67
2022/09/22 11:39:05;;;;;;;;;;;;;;;22.75;46.64;100941.13;7408108;19;1368;-67
2022/09/22 11:41:40;;;;;;;;;;;;;;;22.75;46.79;100949.22;7408432;19;1521;-68
2022/09/22 11:44:23;;;;;;;;;;;;;;;22.74;47.11;100944.81;7407467;19;1872;-67
2022/09/22 11:47:04;;;;;;;;;;;;;;;22.75;47.20;100941.13;7408132;19;1517;-56
2022/09/22 11:49:40;;;;;;;;;;;;;;;22.79;47.09;100948.75;7405896;19;1246;-56
2022/09/22 11:52:17;;;;;;;;;;;;;;;22.77;47.39;100950.75;7404919;19;1467;-56
2022/09/22 11:54:51;;;;;;;;;;;;;;;22.80;47.24;100938.78;7404855;19;1536;-56
2022/09/22 11:57:22;;;;;;;;;;;;;;;22.83;47.71;100944.72;7407255;19;1384;-68
2022/09/22 11:59:53;;;;;;;;;;;;;;;22.82;47.85;100947.59;7407767;19;1738;-56
2022/09/22 12:02:25;;;;;;;;;;;;;;;22.80;47.99;100936.09;7406531;19;2193;-57
2022/09/22 12:04:57;;;;;;;;;;;;;;;22.74;47.80;100936.72;7406369;19;1857;-67
2022/09/22 12:07:29;;;;;;;;;;;;;;;22.75;47.95;100925.78;7406011;19;1676;-67
2022/09/22 12:10:02;;;;;;;;;;;;;;;22.67;48.01;100936.50;7407770;19;1545;-67
2022/09/22 12:12:33;;;;;;;;;;;;;;;22.71;48.11;100929.81;7405804;19;1329;-67
2022/09/22 12:15:07;;;;;;;;;;;;;;;22.73;48.06;100927.78;7405888;19;1280;-67
2022/09/22 12:17:39;;;;;;;;;;;;;;;22.74;48.10;100923.25;7404805;19;1660;-56
2022/09/22 12:20:16;;;;;;;;;;;;;;;22.75;48.59;100919.56;7406200;19;1629;-68
2022/09/22 12:23:05;;;;;;;;;;;;;;;22.80;48.27;100922.63;7404998;19;1439;-66
2022/09/22 12:25:49;;;;;;;;;;;;;;;22.80;48.63;100928.00;7404447;19;1865;-66
2022/09/22 12:28:19;;;;;;;;;;;;;;;22.81;48.56;100914.38;7406064;19;1636;-55
2022/09/22 12:30:58;;;;;;;;;;;;;;;22.78;48.38;100921.94;7406618;19;1447;-64
2022/09/22 12:33:27;;;;;;;;;;;;;;;22.79;48.50;100915.53;7406823;19;1536;-65
2022/09/22 12:35:56;;;;;;;;;;;;;;;22.79;47.97;100913.69;7406095;19;1483;-66
2022/09/22 12:38:30;;;;;;;;;;;;;;;22.86;48.17;100915.75;7405070;19;1779;-55
2022/09/22 12:41:01;;;;;;;;;;;;;;;22.82;48.75;100913.38;7403039;19;1561;-66
2022/09/22 12:43:30;;;;;;;;;;;;;;;22.81;48.92;100911.69;7402388;19;1506;-67
2022/09/22 12:46:00;;;;;;;;;;;;;;;22.78;49.17;100905.75;7404217;19;1869;-66
2022/09/22 12:48:30;;;;;;;;;;;;;;;22.77;49.18;100913.00;7406568;19;1562;-56
2022/09/22 12:51:13;;;;;;;;;;;;;;;22.79;49.13;100913.69;7402220;19;1603;-56
2022/09/22 12:53:44;;;;;;;;;;;;;;;22.79;49.29;100902.06;7399837;19;1551;-55
2022/09/22 12:56:40;;;;;;;;;;;;;;;22.83;49.28;100906.13;7404160;19;1757;-55
2022/09/22 12:59:23;;;;;;;;;;;;;;;22.78;49.54;100887.75;7400919;19;1468;-56
2022/09/22 13:02:18;;;;;;;;;;;;;;;22.81;49.40;100902.75;7400509;19;1387;-56
2022/09/22 13:05:02;;;;;;;;;;;;;;;22.82;49.45;100899.91;7401301;19;1845;-56
2022/09/22 13:07:36;;;;;;;;;;;;;;;22.84;49.60;100902.44;7402138;19;1728;-67
2022/09/22 13:10:20;;;;;;;;;;;;;;;22.88;49.68;100906.53;7402635;19;1668;-56
2022/09/22 13:13:04;;;;;;;;;;;;;;;22.87;49.23;100887.81;7404248;19;1303;-68
2022/09/22 13:15:55;;;;;;;;;;;;;;;22.84;48.94;100888.97;7404442;19;1688;-55
2022/09/22 13:18:31;;;;;;;;;;;;;;;22.88;48.71;100897.56;7405515;19;1537;-55
2022/09/22 13:21:00;;;;;;;;;;;;;;;22.93;48.73;100896.09;7403358;19;1914;-67
2022/09/22 13:23:29;;;;;;;;;;;;;;;22.96;48.57;100885.00;7404560;19;1653;-56
2022/09/22 13:26:05;;;;;;;;;;;;;;;22.93;49.20;100879.91;7402674;19;1868;-57
2022/09/22 13:28:34;;;;;;;;;;;;;;;22.96;48.38;100903.00;7404490;19;1549;-65